sensor_id;sensor_type;location;lat;lon;timestamp;temperature;humidity
74511;DHT22;62991;50.040;18.400;2023-04-15T00:01:57;10.00;72.10
74511;DHT22;62991;50.040;18.400;2023-04-15T00:04:59;10.00;71.20
74511;DHT22;62991;50.040;18.400;2023-04-15T00:08:00;9.90;71.10
74511;DHT22;62991;50.040;18.400;2023-04-15T00:11:00;10.00;70.20
74511;DHT22;62991;50.040;18.400;2023-04-15T00:14:05;9.90;70.00
74511;DHT22;62991;50.040;18.400;2023-04-15T00:17:06;10.10;70.20
74511;DHT22;62991;50.040;18.400;2023-04-15T00:20:07;10.00;70.30
74511;DHT22;62991;50.040;18.400;2023-04-15T00:23:08;9.90;70.30
74511;DHT22;62991;50.040;18.400;2023-04-15T00:26:09;9.70;69.80
74511;DHT22;62991;50.040;18.400;2023-04-15T00:29:10;9.50;69.60
74511;DHT22;62991;50.040;18.400;2023-04-15T00:32:10;9.40;69.50
74511;DHT22;62991;50.040;18.400;2023-04-15T00:35:11;9.50;69.10
74511;DHT22;62991;50.040;18.400;2023-04-15T00:38:12;9.60;68.80
74511;DHT22;62991;50.040;18.400;2023-04-15T00:41:12;9.70;68.10
74511;DHT22;62991;50.040;18.400;2023-04-15T00:44:13;9.70;68.10
74511;DHT22;62991;50.040;18.400;2023-04-15T00:47:15;9.50;68.20
74511;DHT22;62991;50.040;18.400;2023-04-15T00:50:16;9.50;67.40
74511;DHT22;62991;50.040;18.400;2023-04-15T00:53:17;9.30;67.00
74511;DHT22;62991;50.040;18.400;2023-04-15T00:56:19;9.20;67.40
74511;DHT22;62991;50.040;18.400;2023-04-15T00:59:21;9.10;67.20
74511;DHT22;62991;50.040;18.400;2023-04-15T01:02:22;9.10;67.00
74511;DHT22;62991;50.040;18.400;2023-04-15T01:05:23;9.10;67.00
74511;DHT22;62991;50.040;18.400;2023-04-15T01:08:28;9.20;66.20
74511;DHT22;62991;50.040;18.400;2023-04-15T01:11:29;9.30;66.30
74511;DHT22;62991;50.040;18.400;2023-04-15T01:14:32;9.50;65.70
74511;DHT22;62991;50.040;18.400;2023-04-15T01:17:33;9.50;65.40
74511;DHT22;62991;50.040;18.400;2023-04-15T01:20:34;9.60;65.50
74511;DHT22;62991;50.040;18.400;2023-04-15T01:23:36;9.80;65.10
74511;DHT22;62991;50.040;18.400;2023-04-15T01:26:40;10.10;65.10
74511;DHT22;62991;50.040;18.400;2023-04-15T01:29:41;10.20;64.20
74511;DHT22;62991;50.040;18.400;2023-04-15T01:32:42;10.20;63.80
74511;DHT22;62991;50.040;18.400;2023-04-15T01:35:43;10.20;64.30
74511;DHT22;62991;50.040;18.400;2023-04-15T01:38:44;10.10;64.10
74511;DHT22;62991;50.040;18.400;2023-04-15T01:41:45;9.90;64.90
74511;DHT22;62991;50.040;18.400;2023-04-15T01:44:45;9.80;65.10
74511;DHT22;62991;50.040;18.400;2023-04-15T01:47:46;9.50;66.00
74511;DHT22;62991;50.040;18.400;2023-04-15T01:50:47;9.50;66.40
74511;DHT22;62991;50.040;18.400;2023-04-15T01:53:48;9.50;66.10
74511;DHT22;62991;50.040;18.400;2023-04-15T01:56:48;9.20;67.00
74511;DHT22;62991;50.040;18.400;2023-04-15T01:59:49;9.10;67.50
74511;DHT22;62991;50.040;18.400;2023-04-15T02:02:50;9.20;67.50
74511;DHT22;62991;50.040;18.400;2023-04-15T02:05:51;9.30;67.20
74511;DHT22;62991;50.040;18.400;2023-04-15T02:08:51;9.10;67.40
74511;DHT22;62991;50.040;18.400;2023-04-15T02:11:52;8.90;68.00
74511;DHT22;62991;50.040;18.400;2023-04-15T02:14:53;8.70;68.50
74511;DHT22;62991;50.040;18.400;2023-04-15T02:17:55;8.60;68.30
74511;DHT22;62991;50.040;18.400;2023-04-15T02:20:56;8.50;68.80
74511;DHT22;62991;50.040;18.400;2023-04-15T02:23:57;8.60;68.40
74511;DHT22;62991;50.040;18.400;2023-04-15T02:26:58;8.80;67.70
74511;DHT22;62991;50.040;18.400;2023-04-15T02:29:59;8.90;67.40
74511;DHT22;62991;50.040;18.400;2023-04-15T02:33:00;8.80;67.40
74511;DHT22;62991;50.040;18.400;2023-04-15T02:36:01;8.80;67.30
74511;DHT22;62991;50.040;18.400;2023-04-15T02:39:02;8.80;67.40
74511;DHT22;62991;50.040;18.400;2023-04-15T02:42:03;8.80;67.00
74511;DHT22;62991;50.040;18.400;2023-04-15T02:45:06;8.70;67.30
74511;DHT22;62991;50.040;18.400;2023-04-15T02:48:07;8.50;67.70
74511;DHT22;62991;50.040;18.400;2023-04-15T02:51:15;8.30;68.30
74511;DHT22;62991;50.040;18.400;2023-04-15T02:54:17;8.30;68.40
74511;DHT22;62991;50.040;18.400;2023-04-15T02:57:18;8.30;68.40
74511;DHT22;62991;50.040;18.400;2023-04-15T03:00:19;8.30;68.00
74511;DHT22;62991;50.040;18.400;2023-04-15T03:03:20;8.50;67.50
74511;DHT22;62991;50.040;18.400;2023-04-15T03:06:21;8.60;67.20
74511;DHT22;62991;50.040;18.400;2023-04-15T03:09:22;8.60;66.70
74511;DHT22;62991;50.040;18.400;2023-04-15T03:12:22;8.80;66.50
74511;DHT22;62991;50.040;18.400;2023-04-15T03:15:23;8.90;66.00
74511;DHT22;62991;50.040;18.400;2023-04-15T03:18:24;9.00;65.50
74511;DHT22;62991;50.040;18.400;2023-04-15T03:21:24;9.00;65.10
74511;DHT22;62991;50.040;18.400;2023-04-15T03:24:26;9.00;65.50
74511;DHT22;62991;50.040;18.400;2023-04-15T03:27:28;9.30;64.70
74511;DHT22;62991;50.040;18.400;2023-04-15T03:30:29;9.40;64.20
74511;DHT22;62991;50.040;18.400;2023-04-15T03:33:29;9.40;64.00
74511;DHT22;62991;50.040;18.400;2023-04-15T03:36:30;9.60;63.50
74511;DHT22;62991;50.040;18.400;2023-04-15T03:39:34;9.70;63.30
74511;DHT22;62991;50.040;18.400;2023-04-15T03:42:35;9.70;63.00
74511;DHT22;62991;50.040;18.400;2023-04-15T03:45:36;9.70;62.80
74511;DHT22;62991;50.040;18.400;2023-04-15T03:48:36;9.80;63.00
74511;DHT22;62991;50.040;18.400;2023-04-15T03:51:37;9.80;62.90
74511;DHT22;62991;50.040;18.400;2023-04-15T03:54:38;9.90;62.50
74511;DHT22;62991;50.040;18.400;2023-04-15T03:57:38;9.90;62.40
74511;DHT22;62991;50.040;18.400;2023-04-15T04:00:39;9.90;62.40
74511;DHT22;62991;50.040;18.400;2023-04-15T04:03:41;10.00;62.10
74511;DHT22;62991;50.040;18.400;2023-04-15T04:06:41;9.90;62.00
74511;DHT22;62991;50.040;18.400;2023-04-15T04:09:42;9.90;62.20
74511;DHT22;62991;50.040;18.400;2023-04-15T04:12:43;9.90;62.00
74511;DHT22;62991;50.040;18.400;2023-04-15T04:15:43;9.90;61.90
74511;DHT22;62991;50.040;18.400;2023-04-15T04:18:44;9.80;62.30
74511;DHT22;62991;50.040;18.400;2023-04-15T04:21:45;9.80;62.40
74511;DHT22;62991;50.040;18.400;2023-04-15T04:24:45;9.80;61.90
74511;DHT22;62991;50.040;18.400;2023-04-15T04:27:46;9.90;62.10
74511;DHT22;62991;50.040;18.400;2023-04-15T04:30:47;9.90;62.20
74511;DHT22;62991;50.040;18.400;2023-04-15T04:33:47;10.00;61.90
74511;DHT22;62991;50.040;18.400;2023-04-15T04:36:48;10.00;61.60
74511;DHT22;62991;50.040;18.400;2023-04-15T04:39:49;10.00;61.70
74511;DHT22;62991;50.040;18.400;2023-04-15T04:42:50;10.10;61.50
74511;DHT22;62991;50.040;18.400;2023-04-15T04:45:50;10.10;61.00
74511;DHT22;62991;50.040;18.400;2023-04-15T04:48:51;10.00;61.20
74511;DHT22;62991;50.040;18.400;2023-04-15T04:51:52;10.00;61.00
74511;DHT22;62991;50.040;18.400;2023-04-15T04:54:52;10.00;61.10
74511;DHT22;62991;50.040;18.400;2023-04-15T04:57:53;10.10;61.30
74511;DHT22;62991;50.040;18.400;2023-04-15T05:00:54;10.20;60.60
74511;DHT22;62991;50.040;18.400;2023-04-15T05:03:55;10.00;61.00
74511;DHT22;62991;50.040;18.400;2023-04-15T05:06:55;10.20;60.80
74511;DHT22;62991;50.040;18.400;2023-04-15T05:09:56;10.40;60.00
74511;DHT22;62991;50.040;18.400;2023-04-15T05:12:57;10.60;59.50
74511;DHT22;62991;50.040;18.400;2023-04-15T05:15:58;10.70;59.30
74511;DHT22;62991;50.040;18.400;2023-04-15T05:18:59;10.90;58.80
74511;DHT22;62991;50.040;18.400;2023-04-15T05:22:00;11.00;58.30
74511;DHT22;62991;50.040;18.400;2023-04-15T05:25:01;11.10;58.50
74511;DHT22;62991;50.040;18.400;2023-04-15T05:28:01;11.10;59.60
74511;DHT22;62991;50.040;18.400;2023-04-15T05:31:02;11.20;59.90
74511;DHT22;62991;50.040;18.400;2023-04-15T05:34:03;11.20;59.90
74511;DHT22;62991;50.040;18.400;2023-04-15T05:37:04;11.10;60.60
74511;DHT22;62991;50.040;18.400;2023-04-15T05:40:05;11.10;60.20
74511;DHT22;62991;50.040;18.400;2023-04-15T05:43:06;11.10;60.60
74511;DHT22;62991;50.040;18.400;2023-04-15T05:46:07;11.10;60.30
74511;DHT22;62991;50.040;18.400;2023-04-15T05:49:07;11.20;60.20
74511;DHT22;62991;50.040;18.400;2023-04-15T05:52:08;11.30;60.20
74511;DHT22;62991;50.040;18.400;2023-04-15T05:55:09;11.30;61.10
74511;DHT22;62991;50.040;18.400;2023-04-15T05:58:10;11.50;60.50
74511;DHT22;62991;50.040;18.400;2023-04-15T06:01:11;11.60;60.20
74511;DHT22;62991;50.040;18.400;2023-04-15T06:04:11;11.70;58.90
74511;DHT22;62991;50.040;18.400;2023-04-15T06:07:12;11.80;58.60
74511;DHT22;62991;50.040;18.400;2023-04-15T06:10:13;11.90;57.80
74511;DHT22;62991;50.040;18.400;2023-04-15T06:13:13;11.70;59.10
74511;DHT22;62991;50.040;18.400;2023-04-15T06:16:14;11.80;56.60
74511;DHT22;62991;50.040;18.400;2023-04-15T06:19:15;11.80;57.70
74511;DHT22;62991;50.040;18.400;2023-04-15T06:22:15;11.80;56.70
74511;DHT22;62991;50.040;18.400;2023-04-15T06:25:16;11.90;57.40
74511;DHT22;62991;50.040;18.400;2023-04-15T06:28:17;11.90;57.40
74511;DHT22;62991;50.040;18.400;2023-04-15T06:31:18;12.00;56.90
74511;DHT22;62991;50.040;18.400;2023-04-15T06:34:18;12.10;56.60
74511;DHT22;62991;50.040;18.400;2023-04-15T06:37:19;12.20;56.90
74511;DHT22;62991;50.040;18.400;2023-04-15T06:40:20;12.40;57.00
74511;DHT22;62991;50.040;18.400;2023-04-15T06:43:21;12.40;56.60
74511;DHT22;62991;50.040;18.400;2023-04-15T06:46:21;12.20;57.60
74511;DHT22;62991;50.040;18.400;2023-04-15T06:49:22;12.30;56.80
74511;DHT22;62991;50.040;18.400;2023-04-15T06:52:23;12.40;56.90
74511;DHT22;62991;50.040;18.400;2023-04-15T06:55:23;12.40;56.30
74511;DHT22;62991;50.040;18.400;2023-04-15T06:58:24;12.60;56.50
74511;DHT22;62991;50.040;18.400;2023-04-15T07:01:25;12.80;55.60
74511;DHT22;62991;50.040;18.400;2023-04-15T07:04:26;12.50;53.80
74511;DHT22;62991;50.040;18.400;2023-04-15T07:07:27;12.70;54.70
74511;DHT22;62991;50.040;18.400;2023-04-15T07:10:28;12.70;54.90
74511;DHT22;62991;50.040;18.400;2023-04-15T07:13:30;12.70;55.50
74511;DHT22;62991;50.040;18.400;2023-04-15T07:16:31;12.80;53.90
74511;DHT22;62991;50.040;18.400;2023-04-15T07:19:32;12.80;52.10
74511;DHT22;62991;50.040;18.400;2023-04-15T07:22:33;12.80;50.80
74511;DHT22;62991;50.040;18.400;2023-04-15T07:25:33;12.70;50.90
74511;DHT22;62991;50.040;18.400;2023-04-15T07:28:34;12.60;51.00
74511;DHT22;62991;50.040;18.400;2023-04-15T07:31:35;12.50;51.70
74511;DHT22;62991;50.040;18.400;2023-04-15T07:34:38;12.60;52.20
74511;DHT22;62991;50.040;18.400;2023-04-15T07:37:39;12.80;52.40
74511;DHT22;62991;50.040;18.400;2023-04-15T07:40:40;12.80;51.00
74511;DHT22;62991;50.040;18.400;2023-04-15T07:43:41;12.90;50.10
74511;DHT22;62991;50.040;18.400;2023-04-15T07:46:43;12.80;48.90
74511;DHT22;62991;50.040;18.400;2023-04-15T07:49:43;12.80;49.90
74511;DHT22;62991;50.040;18.400;2023-04-15T07:52:44;13.10;51.50
74511;DHT22;62991;50.040;18.400;2023-04-15T07:55:45;13.30;48.70
74511;DHT22;62991;50.040;18.400;2023-04-15T07:58:46;13.10;48.90
74511;DHT22;62991;50.040;18.400;2023-04-15T08:01:47;13.20;48.60
74511;DHT22;62991;50.040;18.400;2023-04-15T08:04:48;13.50;52.60
74511;DHT22;62991;50.040;18.400;2023-04-15T08:07:49;13.70;50.60
74511;DHT22;62991;50.040;18.400;2023-04-15T08:10:50;13.80;52.30
74511;DHT22;62991;50.040;18.400;2023-04-15T08:13:51;13.90;51.20
74511;DHT22;62991;50.040;18.400;2023-04-15T08:16:52;13.90;47.80
74511;DHT22;62991;50.040;18.400;2023-04-15T08:19:52;13.80;49.00
74511;DHT22;62991;50.040;18.400;2023-04-15T08:22:53;13.90;49.50
74511;DHT22;62991;50.040;18.400;2023-04-15T08:25:54;13.50;47.50
74511;DHT22;62991;50.040;18.400;2023-04-15T08:28:54;13.50;47.40
74511;DHT22;62991;50.040;18.400;2023-04-15T08:31:55;13.40;47.30
74511;DHT22;62991;50.040;18.400;2023-04-15T08:34:56;13.50;49.40
74511;DHT22;62991;50.040;18.400;2023-04-15T08:37:57;13.60;47.90
74511;DHT22;62991;50.040;18.400;2023-04-15T08:40:59;13.70;48.80
74511;DHT22;62991;50.040;18.400;2023-04-15T08:44:04;13.90;47.90
74511;DHT22;62991;50.040;18.400;2023-04-15T08:47:07;14.00;48.50
74511;DHT22;62991;50.040;18.400;2023-04-15T08:50:09;14.20;47.90
74511;DHT22;62991;50.040;18.400;2023-04-15T08:53:11;14.00;47.80
74511;DHT22;62991;50.040;18.400;2023-04-15T08:56:14;13.80;48.60
74511;DHT22;62991;50.040;18.400;2023-04-15T08:59:15;13.90;48.20
74511;DHT22;62991;50.040;18.400;2023-04-15T09:02:17;13.80;48.20
74511;DHT22;62991;50.040;18.400;2023-04-15T09:05:18;13.90;49.90
74511;DHT22;62991;50.040;18.400;2023-04-15T09:08:20;14.20;51.80
74511;DHT22;62991;50.040;18.400;2023-04-15T09:11:21;14.40;48.60
74511;DHT22;62991;50.040;18.400;2023-04-15T09:14:22;14.30;51.10
74511;DHT22;62991;50.040;18.400;2023-04-15T09:17:23;14.70;52.60
74511;DHT22;62991;50.040;18.400;2023-04-15T09:20:26;14.80;47.80
74511;DHT22;62991;50.040;18.400;2023-04-15T09:23:26;14.80;48.10
74511;DHT22;62991;50.040;18.400;2023-04-15T09:26:36;14.50;46.30
74511;DHT22;62991;50.040;18.400;2023-04-15T09:29:40;14.50;48.20
74511;DHT22;62991;50.040;18.400;2023-04-15T09:32:52;14.80;46.90
74511;DHT22;62991;50.040;18.400;2023-04-15T09:36:11;14.80;47.00
74511;DHT22;62991;50.040;18.400;2023-04-15T09:39:12;14.80;47.00
74511;DHT22;62991;50.040;18.400;2023-04-15T09:42:13;15.10;47.80
74511;DHT22;62991;50.040;18.400;2023-04-15T09:45:14;15.50;47.00
74511;DHT22;62991;50.040;18.400;2023-04-15T09:48:23;15.20;43.90
74511;DHT22;62991;50.040;18.400;2023-04-15T09:51:34;14.70;45.20
74511;DHT22;62991;50.040;18.400;2023-04-15T09:54:36;14.80;47.20
74511;DHT22;62991;50.040;18.400;2023-04-15T09:57:38;14.90;46.70
74511;DHT22;62991;50.040;18.400;2023-04-15T10:00:45;15.00;46.70
74511;DHT22;62991;50.040;18.400;2023-04-15T10:03:46;15.30;49.20
74511;DHT22;62991;50.040;18.400;2023-04-15T10:06:47;15.50;45.60
74511;DHT22;62991;50.040;18.400;2023-04-15T10:09:48;15.40;44.80
74511;DHT22;62991;50.040;18.400;2023-04-15T10:12:51;15.40;46.70
74511;DHT22;62991;50.040;18.400;2023-04-15T10:16:15;15.20;47.60
74511;DHT22;62991;50.040;18.400;2023-04-15T10:19:20;15.20;46.90
74511;DHT22;62991;50.040;18.400;2023-04-15T10:22:25;15.20;49.20
74511;DHT22;62991;50.040;18.400;2023-04-15T10:25:27;15.20;47.90
74511;DHT22;62991;50.040;18.400;2023-04-15T10:28:28;15.00;47.50
74511;DHT22;62991;50.040;18.400;2023-04-15T10:31:30;15.10;48.30
74511;DHT22;62991;50.040;18.400;2023-04-15T10:34:31;15.10;48.10
74511;DHT22;62991;50.040;18.400;2023-04-15T10:37:36;15.20;47.20
74511;DHT22;62991;50.040;18.400;2023-04-15T10:40:38;15.10;47.30
74511;DHT22;62991;50.040;18.400;2023-04-15T10:43:39;15.10;46.90
74511;DHT22;62991;50.040;18.400;2023-04-15T10:46:44;15.10;47.10
74511;DHT22;62991;50.040;18.400;2023-04-15T10:52:50;15.40;46.80
74511;DHT22;62991;50.040;18.400;2023-04-15T10:55:51;15.50;46.40
74511;DHT22;62991;50.040;18.400;2023-04-15T10:58:52;15.70;46.70
74511;DHT22;62991;50.040;18.400;2023-04-15T11:04:57;16.20;44.30
74511;DHT22;62991;50.040;18.400;2023-04-15T11:07:57;16.30;44.50
74511;DHT22;62991;50.040;18.400;2023-04-15T11:10:58;16.40;45.60
74511;DHT22;62991;50.040;18.400;2023-04-15T11:14:01;16.80;46.70
74511;DHT22;62991;50.040;18.400;2023-04-15T11:17:02;17.20;45.90
74511;DHT22;62991;50.040;18.400;2023-04-15T11:20:05;17.30;44.20
74511;DHT22;62991;50.040;18.400;2023-04-15T11:23:07;17.10;43.00
74511;DHT22;62991;50.040;18.400;2023-04-15T11:26:09;17.10;44.30
74511;DHT22;62991;50.040;18.400;2023-04-15T11:29:16;17.40;45.60
74511;DHT22;62991;50.040;18.400;2023-04-15T11:32:17;17.70;43.90
74511;DHT22;62991;50.040;18.400;2023-04-15T11:35:18;17.90;45.00
74511;DHT22;62991;50.040;18.400;2023-04-15T11:38:19;18.10;43.60
74511;DHT22;62991;50.040;18.400;2023-04-15T11:41:22;18.50;43.90
74511;DHT22;62991;50.040;18.400;2023-04-15T11:44:22;18.80;41.90
74511;DHT22;62991;50.040;18.400;2023-04-15T11:47:24;19.20;42.30
74511;DHT22;62991;50.040;18.400;2023-04-15T11:50:24;19.20;40.00
74511;DHT22;62991;50.040;18.400;2023-04-15T11:53:43;19.10;38.60
74511;DHT22;62991;50.040;18.400;2023-04-15T11:56:49;19.20;38.30
74511;DHT22;62991;50.040;18.400;2023-04-15T11:59:54;19.40;37.70
74511;DHT22;62991;50.040;18.400;2023-04-15T12:03:11;19.20;37.20
74511;DHT22;62991;50.040;18.400;2023-04-15T12:09:14;18.30;38.80
74511;DHT22;62991;50.040;18.400;2023-04-15T12:12:17;18.20;38.30
74511;DHT22;62991;50.040;18.400;2023-04-15T12:15:22;18.20;38.20
74511;DHT22;62991;50.040;18.400;2023-04-15T12:18:24;18.40;39.40
74511;DHT22;62991;50.040;18.400;2023-04-15T12:21:27;18.70;39.90
74511;DHT22;62991;50.040;18.400;2023-04-15T12:24:32;19.00;38.10
74511;DHT22;62991;50.040;18.400;2023-04-15T12:27:33;18.40;37.80
74511;DHT22;62991;50.040;18.400;2023-04-15T12:30:35;18.20;38.10
74511;DHT22;62991;50.040;18.400;2023-04-15T12:33:36;18.40;38.40
74511;DHT22;62991;50.040;18.400;2023-04-15T12:36:37;18.60;36.80
74511;DHT22;62991;50.040;18.400;2023-04-15T12:39:40;18.90;37.50
74511;DHT22;62991;50.040;18.400;2023-04-15T12:42:41;19.20;37.00
74511;DHT22;62991;50.040;18.400;2023-04-15T12:45:41;19.10;36.10
74511;DHT22;62991;50.040;18.400;2023-04-15T12:48:42;19.10;35.40
74511;DHT22;62991;50.040;18.400;2023-04-15T12:51:43;18.90;36.00
74511;DHT22;62991;50.040;18.400;2023-04-15T12:54:44;18.80;38.20
74511;DHT22;62991;50.040;18.400;2023-04-15T12:57:45;19.00;38.20
74511;DHT22;62991;50.040;18.400;2023-04-15T13:00:45;19.70;39.00
74511;DHT22;62991;50.040;18.400;2023-04-15T13:03:46;19.90;37.60
74511;DHT22;62991;50.040;18.400;2023-04-15T13:06:48;20.10;36.10
74511;DHT22;62991;50.040;18.400;2023-04-15T13:09:48;20.50;36.20
74511;DHT22;62991;50.040;18.400;2023-04-15T13:12:51;21.00;36.00
74511;DHT22;62991;50.040;18.400;2023-04-15T13:15:53;21.30;36.60
74511;DHT22;62991;50.040;18.400;2023-04-15T13:18:53;21.10;34.70
74511;DHT22;62991;50.040;18.400;2023-04-15T13:21:54;21.00;35.60
74511;DHT22;62991;50.040;18.400;2023-04-15T13:24:55;20.80;34.70
74511;DHT22;62991;50.040;18.400;2023-04-15T13:27:56;21.10;33.70
74511;DHT22;62991;50.040;18.400;2023-04-15T13:30:57;21.00;34.30
74511;DHT22;62991;50.040;18.400;2023-04-15T13:33:57;21.10;33.80
74511;DHT22;62991;50.040;18.400;2023-04-15T13:36:58;20.90;33.70
74511;DHT22;62991;50.040;18.400;2023-04-15T13:40:05;20.70;33.80
74511;DHT22;62991;50.040;18.400;2023-04-15T13:43:09;20.70;34.60
74511;DHT22;62991;50.040;18.400;2023-04-15T13:46:09;20.70;34.20
74511;DHT22;62991;50.040;18.400;2023-04-15T13:49:10;20.40;34.10
74511;DHT22;62991;50.040;18.400;2023-04-15T13:52:11;20.20;34.70
74511;DHT22;62991;50.040;18.400;2023-04-15T13:55:12;21.90;33.70
74511;DHT22;62991;50.040;18.400;2023-04-15T13:58:13;27.60;28.50
74511;DHT22;62991;50.040;18.400;2023-04-15T14:01:13;28.40;27.00
74511;DHT22;62991;50.040;18.400;2023-04-15T14:04:14;25.90;28.50
74511;DHT22;62991;50.040;18.400;2023-04-15T14:07:15;24.30;29.70
74511;DHT22;62991;50.040;18.400;2023-04-15T14:10:16;22.60;32.50
74511;DHT22;62991;50.040;18.400;2023-04-15T14:13:16;21.80;34.60
74511;DHT22;62991;50.040;18.400;2023-04-15T14:16:18;20.80;37.10
74511;DHT22;62991;50.040;18.400;2023-04-15T14:19:19;20.40;37.20
74511;DHT22;62991;50.040;18.400;2023-04-15T14:22:20;20.20;38.20
74511;DHT22;62991;50.040;18.400;2023-04-15T14:25:20;20.20;37.60
74511;DHT22;62991;50.040;18.400;2023-04-15T14:28:21;19.90;37.60
74511;DHT22;62991;50.040;18.400;2023-04-15T14:31:22;19.50;38.80
74511;DHT22;62991;50.040;18.400;2023-04-15T14:34:23;19.50;39.10
74511;DHT22;62991;50.040;18.400;2023-04-15T14:37:24;19.20;39.60
74511;DHT22;62991;50.040;18.400;2023-04-15T14:40:25;18.80;40.30
74511;DHT22;62991;50.040;18.400;2023-04-15T14:43:26;18.60;41.00
74511;DHT22;62991;50.040;18.400;2023-04-15T14:46:27;18.60;40.90
74511;DHT22;62991;50.040;18.400;2023-04-15T14:49:27;18.80;41.10
74511;DHT22;62991;50.040;18.400;2023-04-15T14:52:30;18.70;40.10
74511;DHT22;62991;50.040;18.400;2023-04-15T14:55:32;18.60;40.90
74511;DHT22;62991;50.040;18.400;2023-04-15T14:58:33;18.40;40.60
74511;DHT22;62991;50.040;18.400;2023-04-15T15:01:33;18.40;41.20
74511;DHT22;62991;50.040;18.400;2023-04-15T15:04:34;18.20;41.00
74511;DHT22;62991;50.040;18.400;2023-04-15T15:07:36;18.00;41.60
74511;DHT22;62991;50.040;18.400;2023-04-15T15:10:38;18.00;41.30
74511;DHT22;62991;50.040;18.400;2023-04-15T15:13:39;17.90;41.30
74511;DHT22;62991;50.040;18.400;2023-04-15T15:16:39;17.80;41.30
74511;DHT22;62991;50.040;18.400;2023-04-15T15:19:40;17.90;41.10
74511;DHT22;62991;50.040;18.400;2023-04-15T15:22:41;17.90;41.20
74511;DHT22;62991;50.040;18.400;2023-04-15T15:25:42;17.70;41.70
74511;DHT22;62991;50.040;18.400;2023-04-15T15:28:43;17.20;42.60
74511;DHT22;62991;50.040;18.400;2023-04-15T15:31:44;16.70;43.30
74511;DHT22;62991;50.040;18.400;2023-04-15T15:34:45;16.30;43.90
74511;DHT22;62991;50.040;18.400;2023-04-15T15:37:46;16.10;44.60
74511;DHT22;62991;50.040;18.400;2023-04-15T15:40:47;15.90;45.70
74511;DHT22;62991;50.040;18.400;2023-04-15T15:43:47;15.80;47.10
74511;DHT22;62991;50.040;18.400;2023-04-15T15:46:55;15.80;46.90
74511;DHT22;62991;50.040;18.400;2023-04-15T15:49:56;15.90;47.40
74511;DHT22;62991;50.040;18.400;2023-04-15T15:52:57;15.90;46.40
74511;DHT22;62991;50.040;18.400;2023-04-15T15:55:58;15.90;46.70
74511;DHT22;62991;50.040;18.400;2023-04-15T15:58:58;15.90;47.00
74511;DHT22;62991;50.040;18.400;2023-04-15T16:02:00;15.90;46.60
74511;DHT22;62991;50.040;18.400;2023-04-15T16:05:00;15.80;46.60
74511;DHT22;62991;50.040;18.400;2023-04-15T16:08:01;15.90;46.80
74511;DHT22;62991;50.040;18.400;2023-04-15T16:11:02;15.90;46.50
74511;DHT22;62991;50.040;18.400;2023-04-15T16:14:03;15.90;46.40
74511;DHT22;62991;50.040;18.400;2023-04-15T16:17:04;15.70;47.00
74511;DHT22;62991;50.040;18.400;2023-04-15T16:20:05;15.50;47.10
74511;DHT22;62991;50.040;18.400;2023-04-15T16:23:16;15.40;47.00
74511;DHT22;62991;50.040;18.400;2023-04-15T16:26:16;15.50;47.40
74511;DHT22;62991;50.040;18.400;2023-04-15T16:29:17;15.80;46.50
74511;DHT22;62991;50.040;18.400;2023-04-15T16:32:18;16.00;46.10
74511;DHT22;62991;50.040;18.400;2023-04-15T16:35:19;15.80;48.30
74511;DHT22;62991;50.040;18.400;2023-04-15T16:38:20;15.70;49.40
74511;DHT22;62991;50.040;18.400;2023-04-15T16:41:21;15.40;50.00
74511;DHT22;62991;50.040;18.400;2023-04-15T16:44:21;15.40;49.90
74511;DHT22;62991;50.040;18.400;2023-04-15T16:47:22;15.30;49.90
74511;DHT22;62991;50.040;18.400;2023-04-15T16:50:23;15.10;51.10
74511;DHT22;62991;50.040;18.400;2023-04-15T16:53:24;14.80;51.30
74511;DHT22;62991;50.040;18.400;2023-04-15T16:56:24;14.60;51.90
74511;DHT22;62991;50.040;18.400;2023-04-15T16:59:25;14.40;53.90
74511;DHT22;62991;50.040;18.400;2023-04-15T17:02:26;14.40;52.80
74511;DHT22;62991;50.040;18.400;2023-04-15T17:05:27;14.20;52.50
74511;DHT22;62991;50.040;18.400;2023-04-15T17:08:28;14.00;53.80
74511;DHT22;62991;50.040;18.400;2023-04-15T17:11:29;14.00;52.70
74511;DHT22;62991;50.040;18.400;2023-04-15T17:14:33;14.00;52.30
74511;DHT22;62991;50.040;18.400;2023-04-15T17:17:34;14.00;53.00
74511;DHT22;62991;50.040;18.400;2023-04-15T17:20:35;14.00;53.00
74511;DHT22;62991;50.040;18.400;2023-04-15T17:23:35;13.90;53.70
74511;DHT22;62991;50.040;18.400;2023-04-15T17:26:36;14.20;52.80
74511;DHT22;62991;50.040;18.400;2023-04-15T17:29:37;14.20;52.90
74511;DHT22;62991;50.040;18.400;2023-04-15T17:32:38;14.30;53.30
74511;DHT22;62991;50.040;18.400;2023-04-15T17:35:39;14.60;53.00
74511;DHT22;62991;50.040;18.400;2023-04-15T17:38:40;14.80;52.40
74511;DHT22;62991;50.040;18.400;2023-04-15T17:41:41;14.90;51.80
74511;DHT22;62991;50.040;18.400;2023-04-15T17:44:42;14.80;51.80
74511;DHT22;62991;50.040;18.400;2023-04-15T17:47:43;14.90;52.00
74511;DHT22;62991;50.040;18.400;2023-04-15T17:50:43;14.90;52.00
74511;DHT22;62991;50.040;18.400;2023-04-15T17:53:44;14.90;52.20
74511;DHT22;62991;50.040;18.400;2023-04-15T17:56:45;15.00;51.90
74511;DHT22;62991;50.040;18.400;2023-04-15T17:59:46;15.00;52.10
74511;DHT22;62991;50.040;18.400;2023-04-15T18:02:47;15.10;51.90
74511;DHT22;62991;50.040;18.400;2023-04-15T18:05:48;15.00;52.20
74511;DHT22;62991;50.040;18.400;2023-04-15T18:08:49;15.00;53.00
74511;DHT22;62991;50.040;18.400;2023-04-15T18:11:50;14.80;53.60
74511;DHT22;62991;50.040;18.400;2023-04-15T18:14:51;14.70;54.50
74511;DHT22;62991;50.040;18.400;2023-04-15T18:17:52;14.50;55.10
74511;DHT22;62991;50.040;18.400;2023-04-15T18:20:53;14.50;55.60
74511;DHT22;62991;50.040;18.400;2023-04-15T18:23:54;14.50;55.40
74511;DHT22;62991;50.040;18.400;2023-04-15T18:26:55;14.50;55.70
74511;DHT22;62991;50.040;18.400;2023-04-15T18:29:55;14.40;55.80
74511;DHT22;62991;50.040;18.400;2023-04-15T18:32:56;14.50;55.90
74511;DHT22;62991;50.040;18.400;2023-04-15T18:35:57;14.40;56.30
74511;DHT22;62991;50.040;18.400;2023-04-15T18:38:57;14.10;56.60
74511;DHT22;62991;50.040;18.400;2023-04-15T18:41:59;14.00;57.10
74511;DHT22;62991;50.040;18.400;2023-04-15T18:45:01;13.80;58.00
74511;DHT22;62991;50.040;18.400;2023-04-15T18:48:02;13.70;58.40
74511;DHT22;62991;50.040;18.400;2023-04-15T18:51:02;13.80;58.30
74511;DHT22;62991;50.040;18.400;2023-04-15T18:54:03;13.80;58.20
74511;DHT22;62991;50.040;18.400;2023-04-15T18:57:05;13.90;58.00
74511;DHT22;62991;50.040;18.400;2023-04-15T19:00:07;13.70;58.20
74511;DHT22;62991;50.040;18.400;2023-04-15T19:03:08;13.60;58.10